Time;durP1;ratioP1;P1;durP2;ratioP2;P2;SDS_P1;SDS_P2;PMS_P1;PMS_P2;Temp;Humidity;BMP_temperature;BMP_pressure;BME280_temperature;BME280_humidity;BME280_pressure;Samples;Min_cycle;Max_cycle;Signal;HPM_P1;HPM_P2
2024/03/21 00:01:45;;;;;;;13.75;7.40;;;;;;;12.63;100.00;100913.19;5119578;28;20089;-72
2024/03/21 00:04:16;;;;;;;15.20;6.97;;;;;;;12.65;100.00;100910.50;5120449;28;20050;-72
2024/03/21 00:06:46;;;;;;;15.25;7.82;;;;;;;12.68;100.00;100908.63;5119255;28;20062;-72
2024/03/21 00:09:16;;;;;;;11.45;7.38;;;;;;;12.80;100.00;100895.03;5120131;28;20105;-72
2024/03/21 00:11:46;;;;;;;12.40;7.15;;;;;;;12.73;100.00;100901.44;5079166;23;1677978;-75
2024/03/21 00:14:17;;;;;;;12.80;7.30;;;;;;;12.66;100.00;100905.19;5123453;28;20050;-76
2024/03/21 00:16:48;;;;;;;13.25;7.50;;;;;;;12.58;100.00;100899.41;5124992;28;20162;-76
2024/03/21 00:19:18;;;;;;;15.30;7.65;;;;;;;12.57;100.00;100891.59;5130981;28;20034;-76
2024/03/21 00:21:50;;;;;;;14.77;7.55;;;;;;;12.69;100.00;100897.22;5127382;28;20340;-74
2024/03/21 00:24:21;;;;;;;15.65;7.32;;;;;;;12.68;100.00;100900.78;5130355;28;20520;-75
2024/03/21 00:26:51;;;;;;;14.75;7.18;;;;;;;12.58;100.00;100896.78;5131096;28;20035;-74
2024/03/21 00:29:24;;;;;;;9.95;6.07;;;;;;;12.70;100.00;100898.94;5123196;28;20053;-74
2024/03/21 00:31:54;;;;;;;10.18;6.65;;;;;;;12.60;100.00;100891.50;5117888;28;20599;-75
2024/03/21 00:34:25;;;;;;;10.13;6.43;;;;;;;12.51;100.00;100895.31;5125654;28;20027;-75
2024/03/21 00:36:56;;;;;;;11.02;6.18;;;;;;;12.56;100.00;100890.75;5132258;28;20030;-75
2024/03/21 00:39:26;;;;;;;12.75;7.00;;;;;;;12.59;100.00;100895.00;5135187;28;20023;-75
2024/03/21 00:41:56;;;;;;;11.80;6.53;;;;;;;12.60;100.00;100883.63;5132316;28;20058;-76
2024/03/21 00:44:27;;;;;;;14.15;7.00;;;;;;;12.65;100.00;100882.50;5128536;28;20034;-75
2024/03/21 00:46:57;;;;;;;11.15;6.40;;;;;;;12.65;100.00;100874.63;5130949;28;20494;-76
2024/03/21 00:49:28;;;;;;;11.40;6.47;;;;;;;12.53;100.00;100874.28;5147841;28;20030;-77
2024/03/21 00:51:58;;;;;;;15.82;7.63;;;;;;;12.53;100.00;100874.28;5131398;28;20114;-75
2024/03/21 00:54:28;;;;;;;15.10;7.60;;;;;;;12.49;100.00;100872.69;5124268;28;20022;-76
2024/03/21 00:56:59;;;;;;;13.50;7.47;;;;;;;12.51;100.00;100866.47;5119979;28;20031;-76
2024/03/21 00:59:29;;;;;;;10.63;6.85;;;;;;;12.45;100.00;100864.06;5125742;28;20110;-77
2024/03/21 01:02:02;;;;;;;14.63;7.18;;;;;;;12.43;100.00;100873.78;5132705;28;20529;-75
2024/03/21 01:04:32;;;;;;;14.18;6.88;;;;;;;12.33;100.00;100861.91;5122426;28;20106;-76
2024/03/21 01:07:03;;;;;;;11.73;6.72;;;;;;;12.30;100.00;100859.41;5132376;28;20574;-75
2024/03/21 01:09:33;;;;;;;12.35;6.72;;;;;;;12.37;100.00;100860.03;5133000;28;20035;-75
2024/03/21 01:12:04;;;;;;;12.30;7.10;;;;;;;12.43;100.00;100859.81;5135062;28;20034;-76
2024/03/21 01:14:35;;;;;;;11.52;7.55;;;;;;;12.45;100.00;100858.00;5126468;28;20023;-77
2024/03/21 01:17:05;;;;;;;11.65;6.53;;;;;;;12.45;100.00;100865.88;5126395;28;20457;-75
2024/03/21 01:19:37;;;;;;;17.67;7.07;;;;;;;12.34;100.00;100852.31;5133026;28;20035;-76
2024/03/21 01:22:07;;;;;;;11.55;6.45;;;;;;;12.34;100.00;100847.06;5148009;28;20037;-76
2024/03/21 01:24:38;;;;;;;19.20;7.28;;;;;;;12.41;100.00;100853.75;5126482;28;20405;-76
2024/03/21 01:27:08;;;;;;;14.88;7.03;;;;;;;12.31;100.00;100845.41;5131955;28;20108;-75
2024/03/21 01:29:38;;;;;;;15.30;7.53;;;;;;;12.21;100.00;100844.06;5129668;28;20018;-74
2024/03/21 01:32:09;;;;;;;13.25;7.95;;;;;;;12.14;100.00;100842.56;5133586;28;20034;-76
2024/03/21 01:34:39;;;;;;;14.93;8.02;;;;;;;12.04;100.00;100838.59;5133748;28;20034;-76
2024/03/21 01:37:09;;;;;;;16.80;8.70;;;;;;;11.94;100.00;100852.09;5136200;28;20251;-75
2024/03/21 01:39:40;;;;;;;15.85;8.50;;;;;;;11.90;100.00;100847.84;5124784;28;20037;-77
2024/03/21 01:42:19;;;;;;;12.00;7.57;;;;;;;11.85;100.00;100850.66;5125590;28;20551;-76
2024/03/21 01:45:05;;;;;;;16.25;8.43;;;;;;;11.87;100.00;100848.84;5118925;28;20023;-75
2024/03/21 01:47:35;;;;;;;13.20;8.15;;;;;;;11.88;100.00;100840.06;5139521;28;20615;-74
2024/03/21 01:50:06;;;;;;;13.57;8.35;;;;;;;11.91;100.00;100834.72;5129667;28;20031;-76
2024/03/21 01:52:39;;;;;;;15.18;7.60;;;;;;;11.92;100.00;100836.44;5134564;28;20557;-75
2024/03/21 01:55:14;;;;;;;14.80;7.70;;;;;;;12.05;100.00;100837.69;5134635;28;20039;-75
2024/03/21 01:57:45;;;;;;;12.87;7.60;;;;;;;12.13;100.00;100826.91;5135424;28;20395;-75
2024/03/21 02:00:16;;;;;;;14.05;7.18;;;;;;;12.06;100.00;100828.91;5127940;28;20031;-77
2024/03/21 02:02:46;;;;;;;14.23;7.38;;;;;;;12.08;100.00;100823.59;5127669;28;20033;-77
2024/03/21 02:05:16;;;;;;;13.63;7.88;;;;;;;11.95;100.00;100825.81;5127168;28;20189;-77
2024/03/21 02:07:47;;;;;;;15.07;7.40;;;;;;;11.85;100.00;100828.84;5131915;28;20074;-76
2024/03/21 02:10:17;;;;;;;12.07;7.43;;;;;;;11.79;100.00;100823.84;5135992;28;20078;-76
2024/03/21 02:12:47;;;;;;;13.30;8.05;;;;;;;11.82;100.00;100818.50;5135835;28;20042;-76
2024/03/21 02:15:18;;;;;;;12.50;7.28;;;;;;;11.83;100.00;100818.44;5129870;28;20023;-75
2024/03/21 02:17:48;;;;;;;12.68;7.55;;;;;;;11.86;100.00;100810.47;5134462;28;20031;-74
2024/03/21 02:20:18;;;;;;;13.32;7.65;;;;;;;11.77;100.00;100818.66;5125999;28;20266;-76
2024/03/21 02:22:49;;;;;;;15.15;7.45;;;;;;;11.67;100.00;100816.44;5139968;28;20530;-75
2024/03/21 02:25:19;;;;;;;17.58;8.10;;;;;;;11.62;100.00;100816.59;5132569;28;20135;-78
2024/03/21 02:27:49;;;;;;;15.05;8.55;;;;;;;11.54;100.00;100818.59;5134157;28;20482;-77
2024/03/21 02:30:20;;;;;;;16.70;8.05;;;;;;;11.54;100.00;100815.97;5147132;28;20405;-76
2024/03/21 02:32:50;;;;;;;12.38;7.78;;;;;;;11.60;100.00;100821.03;5131092;28;20066;-74
2024/03/21 02:35:20;;;;;;;12.27;7.63;;;;;;;11.51;100.00;100812.59;5125345;28;20803;-76
2024/03/21 02:37:51;;;;;;;13.65;8.48;;;;;;;11.50;100.00;100829.22;5150557;28;20037;-76
2024/03/21 02:40:21;;;;;;;16.38;8.70;;;;;;;11.53;100.00;100822.13;5133580;28;20018;-76
2024/03/21 02:42:51;;;;;;;14.75;8.25;;;;;;;11.63;100.00;100818.28;5128624;28;20206;-77
2024/03/21 02:45:22;;;;;;;14.45;7.63;;;;;;;11.76;100.00;100819.56;5146471;28;20027;-75
2024/03/21 02:47:52;;;;;;;13.98;8.40;;;;;;;11.78;100.00;100815.13;5133523;28;20027;-75
2024/03/21 02:50:22;;;;;;;13.55;7.93;;;;;;;11.79;100.00;100811.59;5133823;28;20039;-74
2024/03/21 02:52:53;;;;;;;14.80;8.00;;;;;;;11.80;100.00;100820.31;5131271;28;20027;-77
2024/03/21 02:55:23;;;;;;;16.10;8.52;;;;;;;11.79;100.00;100816.00;5128945;28;20075;-74
2024/03/21 02:57:54;;;;;;;18.60;8.13;;;;;;;11.81;100.00;100801.91;5131083;28;20031;-77
2024/03/21 03:00:24;;;;;;;12.35;7.38;;;;;;;11.75;100.00;100820.47;5133594;28;20027;-77
2024/03/21 03:02:54;;;;;;;14.75;7.68;;;;;;;11.76;100.00;100821.34;5129514;28;20041;-76
2024/03/21 03:05:25;;;;;;;13.27;7.72;;;;;;;11.67;100.00;100817.28;5135865;28;20166;-76
2024/03/21 03:07:55;;;;;;;17.52;7.80;;;;;;;11.87;100.00;100806.06;5135728;28;20274;-77
2024/03/21 03:10:25;;;;;;;15.55;8.40;;;;;;;11.81;100.00;100808.94;5125215;28;20034;-76
2024/03/21 03:12:55;;;;;;;12.52;7.28;;;;;;;11.80;100.00;100808.06;5128627;28;20410;-77
2024/03/21 03:15:26;;;;;;;14.20;7.75;;;;;;;11.81;100.00;100808.94;5135270;28;20019;-76
2024/03/21 03:17:56;;;;;;;15.02;7.93;;;;;;;11.79;100.00;100806.34;5138805;28;20031;-77
2024/03/21 03:20:27;;;;;;;11.40;7.78;;;;;;;11.69;100.00;100805.00;5124436;28;20033;-77
2024/03/21 03:22:58;;;;;;;13.32;7.85;;;;;;;11.61;100.00;100809.63;5129196;28;20038;-76
2024/03/21 03:25:28;;;;;;;12.68;7.57;;;;;;;11.66;100.00;100814.72;5129402;28;20031;-77
2024/03/21 03:27:58;;;;;;;15.02;8.25;;;;;;;11.74;100.00;100797.81;5133650;28;20035;-77
2024/03/21 03:30:28;;;;;;;16.00;6.93;;;;;;;11.61;100.00;100801.78;5130986;28;20042;-78
2024/03/21 03:33:05;;;;;;;13.23;7.60;;;;;;;11.68;100.00;100805.03;5128828;28;20031;-76
2024/03/21 03:35:43;;;;;;;13.68;7.32;;;;;;;11.79;100.00;100801.13;5136516;28;20035;-76
2024/03/21 03:38:15;;;;;;;12.88;7.47;;;;;;;11.73;100.00;100806.59;5132200;28;20461;-76
2024/03/21 03:40:46;;;;;;;10.95;7.50;;;;;;;11.75;100.00;100793.44;5131668;28;20034;-74
2024/03/21 03:43:16;;;;;;;13.27;7.93;;;;;;;11.59;100.00;100803.59;5127958;28;20023;-77
2024/03/21 03:45:47;;;;;;;12.77;7.30;;;;;;;11.54;100.00;100802.03;5130656;28;20458;-74
2024/03/21 03:48:18;;;;;;;11.65;7.35;;;;;;;11.57;100.00;100800.19;5126848;28;20094;-76
2024/03/21 03:50:48;;;;;;;13.60;7.65;;;;;;;11.50;100.00;100798.69;5134073;28;20038;-77
2024/03/21 03:53:18;;;;;;;17.25;8.23;;;;;;;11.50;100.00;100798.69;5124890;28;20030;-76
2024/03/21 03:55:48;;;;;;;19.05;8.20;;;;;;;11.59;100.00;100787.06;5125363;28;20038;-76
2024/03/21 03:58:19;;;;;;;13.00;7.40;;;;;;;11.59;100.00;100795.75;5144547;28;20510;-75
2024/03/21 04:00:59;;;;;;;13.52;7.72;;;;;;;11.65;100.00;100795.53;5133436;28;20030;-75
2024/03/21 04:03:30;;;;;;;13.23;7.18;;;;;;;11.60;100.00;100784.38;5128846;28;20134;-76
2024/03/21 04:06:02;;;;;;;13.82;7.60;;;;;;;11.52;100.00;100791.63;5123812;28;20114;-76
2024/03/21 04:08:32;;;;;;;13.27;7.07;;;;;;;11.59;100.00;100787.91;5132840;28;20026;-77
2024/03/21 04:11:04;;;;;;;14.27;8.30;;;;;;;11.60;100.00;100788.78;5144552;28;20086;-77
2024/03/21 04:13:34;;;;;;;13.77;7.30;;;;;;;11.54;100.00;100781.97;5133041;28;20556;-76
2024/03/21 04:16:04;;;;;;;14.82;8.00;;;;;;;11.50;100.00;100787.34;5132355;28;20026;-76
2024/03/21 04:18:34;;;;;;;13.43;7.88;;;;;;;11.52;100.00;100789.00;5132925;28;20570;-77
2024/03/21 04:21:05;;;;;;;14.32;7.60;;;;;;;11.40;100.00;100789.44;5129415;28;20027;-77
2024/03/21 04:23:35;;;;;;;12.27;7.85;;;;;;;11.46;100.00;100791.00;5131255;28;20137;-76
2024/03/21 04:26:06;;;;;;;13.63;7.93;;;;;;;11.38;100.00;100778.19;5134161;28;20023;-78
2024/03/21 04:28:36;;;;;;;15.80;7.95;;;;;;;11.37;100.00;100786.06;5131793;28;20037;-77
2024/03/21 04:31:07;;;;;;;15.73;7.47;;;;;;;11.48;100.00;100776.91;5133303;28;20049;-75
2024/03/21 04:33:37;;;;;;;11.90;7.35;;;;;;;11.56;100.00;100782.78;5131992;28;20031;-76
2024/03/21 04:36:08;;;;;;;14.43;7.90;;;;;;;11.48;100.00;100790.00;5125250;28;20045;-74
2024/03/21 04:38:38;;;;;;;12.27;7.57;;;;;;;11.65;100.00;100790.28;5128671;28;20382;-76
2024/03/21 04:41:08;;;;;;;13.77;7.82;;;;;;;11.76;100.00;100789.91;5127421;28;20042;-75
2024/03/21 04:43:39;;;;;;;11.93;6.70;;;;;;;11.65;100.00;100792.06;5125453;28;20501;-77
2024/03/21 04:46:09;;;;;;;11.75;7.60;;;;;;;11.57;100.00;100788.84;5134174;28;20118;-74
2024/03/21 04:48:40;;;;;;;14.23;8.07;;;;;;;11.59;100.00;100795.75;5129838;28;20471;-76
2024/03/21 04:51:10;;;;;;;14.85;7.72;;;;;;;11.65;100.00;100807.78;5131071;28;20031;-76
2024/03/21 04:53:40;;;;;;;12.90;8.07;;;;;;;11.73;100.00;100814.44;5132071;28;20184;-77
2024/03/21 04:56:10;;;;;;;17.23;8.38;;;;;;;11.76;100.00;100813.47;5127749;28;20027;-76
2024/03/21 04:58:41;;;;;;;14.27;7.40;;;;;;;11.76;100.00;100801.22;5120730;28;20055;-76
2024/03/21 05:01:11;;;;;;;14.88;7.82;;;;;;;11.81;100.00;100815.00;5125782;28;20038;-73
2024/03/21 05:03:42;;;;;;;13.27;7.60;;;;;;;11.87;100.00;100813.94;5131279;28;20442;-76
2024/03/21 05:06:12;;;;;;;12.43;7.80;;;;;;;11.94;100.00;100820.66;5130708;28;20034;-77
2024/03/21 05:08:43;;;;;;;15.05;7.82;;;;;;;11.86;100.00;100826.19;5130649;28;20717;-78
2024/03/21 05:11:14;;;;;;;11.77;7.40;;;;;;;11.99;100.00;100830.03;5130896;28;20028;-75
2024/03/21 05:13:47;;;;;;;14.05;8.05;;;;;;;12.06;100.00;100830.66;5128440;28;20117;-76
2024/03/21 05:16:18;;;;;;;13.27;8.38;;;;;;;12.10;100.00;100840.13;5126952;28;20390;-76
2024/03/21 05:18:48;;;;;;;12.15;8.07;;;;;;;12.10;100.00;100829.66;5127857;28;20045;-75
2024/03/21 05:21:19;;;;;;;15.18;8.40;;;;;;;12.10;100.00;100837.53;5135162;28;20102;-76
2024/03/21 05:23:49;;;;;;;15.00;8.48;;;;;;;12.09;100.00;100839.28;5131208;28;20049;-74
2024/03/21 05:26:19;;;;;;;15.35;8.25;;;;;;;12.14;100.00;100837.31;5127998;28;20023;-76
2024/03/21 05:28:50;;;;;;;13.40;8.48;;;;;;;12.14;100.00;100837.31;5130461;28;20042;-76
2024/03/21 05:31:22;;;;;;;14.15;8.32;;;;;;;12.07;100.00;100848.09;5134845;28;20093;-76
2024/03/21 05:33:58;;;;;;;11.82;7.93;;;;;;;12.17;100.00;100847.72;5132109;28;20198;-77
2024/03/21 05:36:29;;;;;;;;;;;;;;;12.18;100.00;100861.66;5133649;28;20023;-77
2024/03/21 05:38:59;;;;;;;20.08;8.45;;;;;;;12.03;100.00;100852.59;5135286;28;20376;-77
2024/03/21 05:41:30;;;;;;;15.75;9.45;;;;;;;11.96;100.00;100858.13;5132333;28;20232;-78
2024/03/21 05:44:00;;;;;;;19.33;10.02;;;;;;;11.89;100.00;100864.47;5135099;28;20062;-77
2024/03/21 05:46:30;;;;;;;15.88;9.27;;;;;;;12.04;100.00;100870.03;5129138;28;20046;-77
2024/03/21 05:49:01;;;;;;;16.13;9.80;;;;;;;12.09;100.00;100878.56;5132809;28;20304;-77
2024/03/21 05:51:31;;;;;;;20.15;10.80;;;;;;;12.13;100.00;100876.69;5129920;28;20023;-77
2024/03/21 05:54:05;;;;;;;20.35;11.02;;;;;;;12.17;100.00;100868.69;5132539;28;20030;-77
2024/03/21 05:56:36;;;;;;;23.65;12.23;;;;;;;12.22;100.00;100878.97;5144285;28;20020;-77
2024/03/21 05:59:06;;;;;;;21.90;12.32;;;;;;;12.18;100.00;100867.75;5131744;28;20054;-77
2024/03/21 06:01:36;;;;;;;19.35;12.05;;;;;;;12.13;100.00;100863.59;5129533;28;20487;-76
2024/03/21 06:04:08;;;;;;;26.20;13.20;;;;;;;12.17;100.00;100866.06;5144488;28;20027;-76
2024/03/21 06:06:39;;;;;;;25.83;14.32;;;;;;;12.24;100.00;100883.25;5144241;28;20517;-77
2024/03/21 06:09:11;;;;;;;22.40;14.10;;;;;;;12.24;100.00;100883.25;5126067;28;20056;-76
2024/03/21 06:11:41;;;;;;;24.15;14.25;;;;;;;12.16;100.00;100889.69;5131396;28;20393;-76
2024/03/21 06:14:12;;;;;;;26.05;16.10;;;;;;;12.25;100.00;100895.44;5133538;28;20038;-74
2024/03/21 06:16:42;;;;;;;28.23;16.15;;;;;;;12.14;100.00;100889.72;5128302;28;20495;-76
2024/03/21 06:19:12;;;;;;;25.75;15.68;;;;;;;12.23;100.00;100896.38;5130460;28;20027;-76
2024/03/21 06:21:43;;;;;;;30.00;16.85;;;;;;;12.34;100.00;100886.38;5128909;28;20075;-75
2024/03/21 06:24:13;;;;;;;29.38;17.42;;;;;;;12.23;100.00;100881.53;5131243;28;20035;-75
2024/03/21 06:26:44;;;;;;;29.00;16.98;;;;;;;12.19;100.00;100869.47;5129640;28;20031;-75
2024/03/21 06:29:14;;;;;;;33.20;17.08;;;;;;;12.18;100.00;100866.91;5130152;28;20026;-76
2024/03/21 06:31:45;;;;;;;33.45;17.08;;;;;;;12.18;100.00;100862.53;5145277;28;20214;-75
2024/03/21 06:34:15;;;;;;;27.85;16.27;;;;;;;12.15;100.00;100862.63;5146576;28;20079;-75
2024/03/21 06:36:45;;;;;;;26.73;17.30;;;;;;;12.09;100.00;100857.59;5129334;28;20061;-73
2024/03/21 06:39:16;;;;;;;30.40;16.58;;;;;;;12.09;100.00;100868.09;5130385;28;20102;-76
2024/03/21 06:41:46;;;;;;;29.75;14.98;;;;;;;12.17;100.00;100858.19;5133256;28;20035;-76
2024/03/21 06:44:16;;;;;;;29.25;15.80;;;;;;;12.15;100.00;100877.50;5132190;28;20023;-73
2024/03/21 06:46:47;;;;;;;27.75;14.30;;;;;;;12.11;100.00;100886.38;5129893;28;20122;-76
2024/03/21 06:49:17;;;;;;;23.05;13.35;;;;;;;12.16;100.00;100882.66;5129535;28;20023;-76
2024/03/21 06:51:47;;;;;;;21.58;13.77;;;;;;;12.09;100.00;100888.22;5129794;28;20026;-76
2024/03/21 06:54:18;;;;;;;25.10;14.65;;;;;;;12.13;100.00;100895.03;5128172;28;20022;-76
2024/03/21 06:56:48;;;;;;;22.63;13.20;;;;;;;12.15;100.00;100887.97;5122148;28;20030;-75
2024/03/21 06:59:18;;;;;;;25.58;14.75;;;;;;;12.12;100.00;100888.94;5103254;28;20615;-73
2024/03/21 07:01:49;;;;;;;27.30;16.10;;;;;;;12.17;100.00;100887.03;5037875;28;21169;-73
2024/03/21 07:04:19;;;;;;;25.25;16.45;;;;;;;12.12;100.00;100895.97;5039873;28;20661;-73
2024/03/21 07:06:49;;;;;;;34.70;19.70;;;;;;;12.13;100.00;100885.41;5039850;28;20063;-74
2024/03/21 07:09:19;;;;;;;29.02;19.08;;;;;;;12.15;100.00;100891.44;5042673;28;21301;-73
2024/03/21 07:11:50;;;;;;;35.08;18.63;;;;;;;12.14;100.00;100886.28;5040064;28;20063;-73
2024/03/21 07:14:20;;;;;;;40.10;22.42;;;;;;;12.17;100.00;100897.50;5054350;28;20036;-73
2024/03/21 07:16:51;;;;;;;36.78;22.10;;;;;;;12.22;100.00;100894.69;5042020;28;20399;-73
2024/03/21 07:19:21;;;;;;;38.13;21.80;;;;;;;12.33;100.00;100896.00;5042008;28;21028;-74
2024/03/21 07:21:51;;;;;;;38.65;22.63;;;;;;;12.37;100.00;100899.34;5040893;28;20130;-73
2024/03/21 07:24:22;;;;;;;41.33;23.52;;;;;;;12.42;100.00;100893.03;5042255;28;20414;-73
2024/03/21 07:26:52;;;;;;;37.20;22.45;;;;;;;12.52;100.00;100894.41;5042798;28;20429;-73
2024/03/21 07:29:22;;;;;;;42.30;24.45;;;;;;;12.53;100.00;100898.75;5041894;28;20639;-72
2024/03/21 07:31:53;;;;;;;36.67;22.30;;;;;;;12.61;100.00;100903.69;5041095;28;20590;-73
2024/03/21 07:34:23;;;;;;;43.25;24.30;;;;;;;12.56;100.00;100901.22;5043242;28;20515;-73
2024/03/21 07:36:54;;;;;;;42.22;24.35;;;;;;;12.64;100.00;100899.16;5041910;28;20466;-73
2024/03/21 07:39:24;;;;;;;46.13;26.55;;;;;;;12.71;100.00;100900.66;5126136;28;20466;-76
2024/03/21 07:41:54;;;;;;;40.92;24.02;;;;;;;12.75;100.00;100902.22;5124902;28;20126;-76
2024/03/21 07:44:25;;;;;;;41.22;25.02;;;;;;;12.79;100.00;100909.06;5058036;28;20047;-73
2024/03/21 07:46:56;;;;;;;43.58;25.75;;;;;;;12.86;100.00;100905.28;5039422;28;20043;-73
2024/03/21 07:49:26;;;;;;;46.10;25.60;;;;;;;12.92;100.00;100912.91;5047962;28;20036;-75
2024/03/21 07:52:01;;;;;;;44.58;25.70;;;;;;;12.97;100.00;100905.72;5125407;28;20117;-76
2024/03/21 07:54:33;;;;;;;44.53;26.92;;;;;;;12.99;100.00;100911.78;5125189;28;20031;-76
2024/03/21 07:57:04;;;;;;;45.10;26.13;;;;;;;12.98;100.00;100915.31;5125517;28;20022;-76
2024/03/21 07:59:34;;;;;;;44.65;26.48;;;;;;;13.03;100.00;100902.88;5128246;28;20035;-76
2024/03/21 08:02:04;;;;;;;46.15;25.42;;;;;;;12.96;100.00;100906.66;5121850;28;20545;-76
2024/03/21 08:04:34;;;;;;;46.28;25.85;;;;;;;12.97;100.00;100910.97;5125077;28;20042;-76
2024/03/21 08:07:05;;;;;;;40.13;24.90;;;;;;;13.09;100.00;100907.88;5121627;28;20043;-75
2024/03/21 08:09:35;;;;;;;40.80;24.50;;;;;;;12.99;100.00;100914.41;5122653;28;20054;-75
2024/03/21 08:12:06;;;;;;;43.38;23.52;;;;;;;12.95;100.00;100915.44;5123397;28;20434;-73
2024/03/21 08:14:36;;;;;;;44.42;24.08;;;;;;;12.94;100.00;100924.22;5130552;28;20023;-74
2024/03/21 08:17:06;;;;;;;44.17;23.98;;;;;;;12.91;100.00;100926.94;5130672;28;20019;-75
2024/03/21 08:19:37;;;;;;;42.13;25.73;;;;;;;13.03;100.00;100926.50;5130807;28;20023;-76
2024/03/21 08:22:07;;;;;;;42.53;24.63;;;;;;;13.07;100.00;100925.47;5129670;28;20027;-75
2024/03/21 08:24:38;;;;;;;39.65;23.67;;;;;;;13.13;100.00;100930.44;5132300;28;20178;-77
2024/03/21 08:27:08;;;;;;;38.20;23.50;;;;;;;13.13;100.00;100931.31;5131119;28;20560;-75
2024/03/21 08:29:38;;;;;;;47.40;27.23;;;;;;;12.95;100.00;100930.34;5132388;28;20558;-76
2024/03/21 08:32:11;;;;;;;40.90;25.58;;;;;;;13.04;100.00;100941.31;5131625;28;20123;-76
2024/03/21 08:34:41;;;;;;;39.65;22.40;;;;;;;13.07;100.00;100946.44;5126784;28;20042;-75
2024/03/21 08:37:12;;;;;;;36.45;21.30;;;;;;;13.00;100.00;100952.84;5130061;28;20368;-76
2024/03/21 08:39:42;;;;;;;33.20;20.13;;;;;;;12.99;100.00;100952.00;5129254;28;20023;-72
2024/03/21 08:42:12;;;;;;;36.25;21.85;;;;;;;13.10;100.00;100952.41;5143283;28;20038;-76
2024/03/21 08:44:43;;;;;;;40.17;22.60;;;;;;;13.05;100.00;100954.38;5128822;28;20498;-74
2024/03/21 08:47:13;;;;;;;33.28;20.77;;;;;;;13.11;100.00;100956.78;5132524;28;20034;-76
2024/03/21 08:49:43;;;;;;;36.10;21.45;;;;;;;13.05;100.00;100958.78;5132068;28;20081;-74
2024/03/21 08:52:14;;;;;;;34.88;21.63;;;;;;;13.03;100.00;100960.63;5133364;28;20038;-76
2024/03/21 08:54:44;;;;;;;34.50;20.95;;;;;;;13.03;100.00;100971.09;5131326;28;20027;-74
2024/03/21 08:57:15;;;;;;;32.22;18.58;;;;;;;13.12;100.00;100965.47;5133271;28;20281;-75
2024/03/21 08:59:47;;;;;;;28.65;18.42;;;;;;;13.06;100.00;100968.34;5129262;28;20544;-75
2024/03/21 09:02:18;;;;;;;27.50;15.55;;;;;;;13.38;100.00;100966.16;5129952;28;20026;-76
2024/03/21 09:04:48;;;;;;;22.95;13.80;;;;;;;13.68;100.00;100964.88;5129570;28;20031;-75
2024/03/21 09:07:18;;;;;;;21.05;12.50;;;;;;;13.71;100.00;100970.00;5126776;28;20059;-75
2024/03/21 09:09:49;;;;;;;15.50;9.43;;;;;;;14.23;100.00;100968.66;5146132;28;20039;-74
2024/03/21 09:12:19;;;;;;;13.18;8.20;;;;;;;15.20;95.92;100964.91;5130503;28;20109;-75
2024/03/21 09:14:49;;;;;;;10.65;6.72;;;;;;;14.88;93.66;100970.84;5129291;28;20031;-74
2024/03/21 09:17:19;;;;;;;13.10;7.55;;;;;;;15.07;91.51;100979.59;5130631;28;20102;-76
2024/03/21 09:19:50;;;;;;;10.85;7.45;;;;;;;14.93;93.65;100982.03;5131900;28;20030;-74
2024/03/21 09:22:20;;;;;;;15.38;8.25;;;;;;;14.52;93.35;100983.97;5132092;28;20023;-76
2024/03/21 09:24:51;;;;;;;7.50;4.93;;;;;;;14.08;93.60;100992.97;5131520;28;20038;-75
2024/03/21 09:27:21;;;;;;;9.90;5.53;;;;;;;13.76;95.70;101001.34;5143828;28;20050;-75
2024/03/21 09:29:51;;;;;;;13.60;7.82;;;;;;;13.25;98.34;101012.16;5132298;28;20034;-76
2024/03/21 09:32:22;;;;;;;15.18;7.90;;;;;;;12.63;100.00;101039.06;5131990;28;20083;-74
2024/03/21 09:34:52;;;;;;;17.15;8.93;;;;;;;12.39;100.00;101045.19;5127116;28;20041;-76
2024/03/21 09:37:23;;;;;;;16.42;8.88;;;;;;;12.17;100.00;101053.84;5125550;28;20026;-74
2024/03/21 09:39:53;;;;;;;13.73;7.82;;;;;;;12.11;100.00;101060.16;5128146;28;20034;-74
2024/03/21 09:42:24;;;;;;;15.88;8.77;;;;;;;12.19;100.00;101066.00;5127596;28;20309;-75
2024/03/21 09:44:56;;;;;;;14.68;8.13;;;;;;;12.11;100.00;101075.88;5131503;28;20026;-74
2024/03/21 09:47:27;;;;;;;11.15;7.82;;;;;;;12.11;100.00;101083.72;5131462;28;20471;-76
2024/03/21 09:49:58;;;;;;;13.60;7.85;;;;;;;11.94;100.00;101086.06;5111535;28;20042;-75
2024/03/21 09:52:30;;;;;;;14.40;8.18;;;;;;;12.12;100.00;101089.84;5130660;28;20022;-75
2024/03/21 09:55:04;;;;;;;10.75;7.10;;;;;;;12.16;98.74;101100.16;5132346;28;20049;-75
2024/03/21 09:57:35;;;;;;;10.05;5.90;;;;;;;12.31;95.35;101085.69;5130853;28;20043;-76
2024/03/21 10:00:09;;;;;;;14.07;7.50;;;;;;;12.58;95.09;101093.44;5131047;28;20062;-76
2024/03/21 10:02:40;;;;;;;10.10;5.93;;;;;;;12.02;92.32;101106.75;5129183;28;20454;-76
2024/03/21 10:05:21;;;;;;;9.07;5.50;;;;;;;12.20;93.50;101096.53;5125826;28;20031;-76
2024/03/21 10:07:51;;;;;;;9.68;5.97;;;;;;;12.51;92.04;101099.81;5131584;28;20102;-76
2024/03/21 10:10:22;;;;;;;15.07;8.77;;;;;;;12.81;91.45;101111.81;5132140;28;20022;-74
2024/03/21 10:12:52;;;;;;;9.75;6.28;;;;;;;12.69;91.61;101099.16;5131780;28;20118;-75
2024/03/21 10:15:22;;;;;;;11.23;6.38;;;;;;;12.54;91.78;101107.56;5131934;28;20678;-76
2024/03/21 10:17:52;;;;;;;10.70;6.28;;;;;;;13.18;91.66;101112.22;5128917;28;20019;-76
2024/03/21 10:20:23;;;;;;;9.27;5.70;;;;;;;13.36;91.24;101107.13;5136238;28;20034;-75
2024/03/21 10:22:53;;;;;;;8.45;5.32;;;;;;;13.37;89.50;101114.09;5135717;28;20030;-76
2024/03/21 10:25:24;;;;;;;8.77;5.35;;;;;;;13.22;89.91;101108.59;5136875;28;20025;-76
2024/03/21 10:27:55;;;;;;;8.32;5.25;;;;;;;12.78;91.06;101121.59;5132621;28;20039;-76
2024/03/21 10:30:26;;;;;;;11.45;6.13;;;;;;;12.61;91.51;101124.78;5134443;28;20030;-76
2024/03/21 10:32:57;;;;;;;11.38;6.60;;;;;;;12.53;93.12;101121.59;5126221;28;20045;-76
2024/03/21 10:35:31;;;;;;;10.15;6.32;;;;;;;12.30;94.41;101129.38;5131968;28;20550;-75
2024/03/21 10:38:02;;;;;;;14.60;9.50;;;;;;;12.31;94.97;101138.94;5133485;28;20379;-76
2024/03/21 10:40:33;;;;;;;11.68;6.95;;;;;;;11.99;95.76;101144.38;5131127;28;20031;-75
2024/03/21 10:43:03;;;;;;;14.02;7.53;;;;;;;11.75;96.10;101139.94;5125096;28;20031;-76
2024/03/21 10:45:34;;;;;;;17.02;9.40;;;;;;;11.55;98.37;101149.25;5129707;28;20027;-76
2024/03/21 10:48:06;;;;;;;13.57;8.52;;;;;;;11.58;99.10;101147.44;5132077;28;20046;-76
2024/03/21 10:50:36;;;;;;;15.88;10.38;;;;;;;11.55;100.00;101167.59;5130363;28;20357;-76
2024/03/21 10:53:19;;;;;;;18.95;11.20;;;;;;;11.43;100.00;101163.59;5134314;28;20030;-75
2024/03/21 10:55:50;;;;;;;17.20;10.95;;;;;;;11.34;100.00;101168.22;5132273;28;20042;-75
2024/03/21 10:58:21;;;;;;;19.15;11.52;;;;;;;11.02;100.00;101182.25;5132283;28;20038;-73
2024/03/21 11:00:55;;;;;;;21.40;12.95;;;;;;;11.10;100.00;101185.47;5127003;28;20027;-75
2024/03/21 11:03:25;;;;;;;18.05;11.30;;;;;;;10.90;100.00;101184.34;5126246;28;20380;-76
2024/03/21 11:05:56;;;;;;;18.95;11.13;;;;;;;11.05;100.00;101190.00;5129503;28;20045;-76
2024/03/21 11:08:29;;;;;;;19.20;10.07;;;;;;;10.89;100.00;101179.13;5140851;28;20023;-75
2024/03/21 11:10:59;;;;;;;15.30;8.13;;;;;;;10.53;100.00;101190.56;5132913;28;20066;-76
2024/03/21 11:13:29;;;;;;;14.82;8.70;;;;;;;10.73;100.00;101196.13;5134433;28;20306;-75
2024/03/21 11:16:00;;;;;;;17.92;8.43;;;;;;;10.79;100.00;101198.56;5135914;28;20037;-76
2024/03/21 11:18:30;;;;;;;12.52;6.85;;;;;;;10.62;100.00;101201.63;5131462;28;20031;-75
2024/03/21 11:21:01;;;;;;;17.92;8.85;;;;;;;10.64;100.00;101209.41;5134419;28;20477;-76
2024/03/21 11:23:31;;;;;;;15.05;8.63;;;;;;;10.84;100.00;101210.63;5135820;28;20030;-75